SBOSBO DTM / EDLW
Speedbird OnlineSpeedbird Online DTM / EDLW

Dortmund Airport
20:41 6.6°C

Location Dortmund, Germany
Latitude: 51.51829910279999
Longitude: 7.61223983765
Local Time 20:41 on 23 Feb 2024
UTC +1 hours (Europe/Berlin)
Currency £1 equals EUR 1.17
METAR EDLW 231920Z 16009KT CAVOK 07/01 Q0994
TAF TAF EDLW 231700Z 2318/2418 18009KT 9999 BKN020 PROB30 TEMPO 2406/2408 20014KT 4000 SHRAGS BKN014CB BECMG 2409/2412 20014KT PROB30 TEMPO 2410/2413 20015G25KT 4000 SHRAGS BKN014CB BECMG 2415/2418 18009KT
Weather As Of 23 Feb 2024 20:37
Description Clear sky
Wind 17 km/h from South (160°)
Cloud Cover 0%
Precipitation Rain: none, Snow: none
Sunrise 07:29
Sunset 17:57
Rotations During the last 90 days there were
1 flights from AGB
1 flights to AGB
Web Wikipedia
Codes IATA: DTM
ICAO: EDLW
Altitude 130 Meter / 425 Feet
Distance 518 KM / 322 Miles
from London.
Runways
RunwayLength (m)Surface
062000Asphalt
242000Asphalt
Radio
TypeDescriptionFrequency
AFISLANGEN INFO129.875
APPLANGEN RADAR125.225
ATISATIS125.125
GNDGND121.825
TWRTWR134.175
Live ATC



Support Speedbird Online

© 2017-2024 Speedbird Online